Time;durP1;ratioP1;P1;durP2;ratioP2;P2;SDS_P1;SDS_P2;PMS_P1;PMS_P2;Temp;Humidity;BMP_temperature;BMP_pressure;BME280_temperature;BME280_humidity;BME280_pressure;Samples;Min_cycle;Max_cycle;Signal;HPM_P1;HPM_P2
2023/08/30 00:00:25;;;;;;;1.58;1.40;;;;;;;;;;4966073;28;20213;-63
2023/08/30 00:02:52;;;;;;;3.50;1.40;;;;;;;;;;4959328;28;20222;-62
2023/08/30 00:05:20;;;;;;;2.03;1.20;;;;;;;;;;4968664;28;20206;-63
2023/08/30 00:07:47;;;;;;;1.77;1.23;;;;;;;;;;4967980;28;20218;-62
2023/08/30 00:10:14;;;;;;;1.35;1.23;;;;;;;;;;4977676;28;20679;-62
2023/08/30 00:12:42;;;;;;;2.33;1.52;;;;;;;;;;4969492;28;20238;-63
2023/08/30 00:15:09;;;;;;;1.20;1.20;;;;;;;;;;4967946;28;20214;-62
2023/08/30 00:17:36;;;;;;;1.67;1.50;;;;;;;;;;4967712;28;20679;-62
2023/08/30 00:20:03;;;;;;;1.70;1.70;;;;;;;;;;4968017;28;20214;-62
2023/08/30 00:22:32;;;;;;;2.08;1.33;;;;;;;;;;4972231;28;20270;-62
2023/08/30 00:24:59;;;;;;;1.45;1.38;;;;;;;;;;4968675;28;20214;-62
2023/08/30 00:27:26;;;;;;;1.60;1.50;;;;;;;;;;4967799;28;20206;-62
2023/08/30 00:29:53;;;;;;;1.38;1.38;;;;;;;;;;4967567;28;20711;-63
2023/08/30 00:32:21;;;;;;;1.80;1.70;;;;;;;;;;4953735;28;20202;-63
2023/08/30 00:34:51;;;;;;;3.58;1.67;;;;;;;;;;4967942;28;20234;-62
2023/08/30 00:37:18;;;;;;;3.63;1.50;;;;;;;;;;4968147;28;20210;-63
2023/08/30 00:39:46;;;;;;;1.77;1.67;;;;;;;;;;4965653;28;20213;-62
2023/08/30 00:42:13;;;;;;;1.60;1.60;;;;;;;;;;4967565;28;20841;-62
2023/08/30 00:44:40;;;;;;;1.70;1.70;;;;;;;;;;4959158;28;20202;-62
2023/08/30 00:47:08;;;;;;;1.75;1.75;;;;;;;;;;4974624;28;20210;-62
2023/08/30 00:49:35;;;;;;;1.83;1.73;;;;;;;;;;4962820;28;20230;-62
2023/08/30 00:52:03;;;;;;;1.60;1.60;;;;;;;;;;4957162;28;20221;-62
2023/08/30 00:54:31;;;;;;;1.88;1.77;;;;;;;;;;4968897;28;20631;-63
2023/08/30 00:56:59;;;;;;;2.25;2.00;;;;;;;;;;4967872;28;20210;-62
2023/08/30 00:59:26;;;;;;;2.65;1.88;;;;;;;;;;4965471;28;20215;-62
2023/08/30 01:01:53;;;;;;;2.08;1.98;;;;;;;;;;4965888;28;20218;-62
2023/08/30 01:04:22;;;;;;;1.98;1.88;;;;;;;;;;4962682;28;20496;-63
2023/08/30 01:06:49;;;;;;;1.70;1.60;;;;;;;;;;4953669;28;20216;-62
2023/08/30 01:09:17;;;;;;;2.50;2.40;;;;;;;;;;4967602;28;20363;-63
2023/08/30 01:11:47;;;;;;;3.08;2.53;;;;;;;;;;4968480;28;20234;-62
2023/08/30 01:14:18;;;;;;;2.78;2.20;;;;;;;;;;4967198;28;20206;-63
2023/08/30 01:16:45;;;;;;;2.72;2.63;;;;;;;;;;4967017;28;20286;-63
2023/08/30 01:19:20;;;;;;;2.80;2.53;;;;;;;;;;4967329;28;20787;-63
2023/08/30 01:21:51;;;;;;;2.25;2.15;;;;;;;;;;4967485;28;20241;-63
2023/08/30 01:24:25;;;;;;;2.25;2.15;;;;;;;;;;4967807;28;20214;-63
2023/08/30 01:27:01;;;;;;;2.15;2.05;;;;;;;;;;4967635;28;20209;-63
2023/08/30 01:29:28;;;;;;;2.10;2.00;;;;;;;;;;4967350;28;20226;-63
2023/08/30 01:31:56;;;;;;;1.83;1.83;;;;;;;;;;4967032;28;20198;-63
2023/08/30 01:34:23;;;;;;;2.58;2.40;;;;;;;;;;4969122;28;20218;-63
2023/08/30 01:36:50;;;;;;;1.90;1.63;;;;;;;;;;4970822;28;20206;-62
2023/08/30 01:39:18;;;;;;;2.83;2.47;;;;;;;;;;4964704;28;20221;-63
2023/08/30 01:41:45;;;;;;;2.08;2.03;;;;;;;;;;4972758;28;20202;-62
2023/08/30 01:44:16;;;;;;;1.80;1.80;;;;;;;;;;4970505;28;20214;-62
2023/08/30 01:46:43;;;;;;;2.15;2.05;;;;;;;;;;4970344;28;20838;-63
2023/08/30 01:49:11;;;;;;;2.03;2.03;;;;;;;;;;4969874;28;20229;-62
2023/08/30 01:51:38;;;;;;;3.03;2.25;;;;;;;;;;4970871;28;20210;-62
2023/08/30 01:54:06;;;;;;;2.30;2.13;;;;;;;;;;4970680;28;20229;-62
2023/08/30 01:56:33;;;;;;;2.92;2.50;;;;;;;;;;4970033;28;20206;-63
2023/08/30 01:59:00;;;;;;;2.33;2.22;;;;;;;;;;4970216;28;20206;-62
2023/08/30 02:01:28;;;;;;;2.50;2.30;;;;;;;;;;4970841;28;20217;-62
2023/08/30 02:03:55;;;;;;;1.95;1.92;;;;;;;;;;4973853;28;20206;-62
2023/08/30 02:06:23;;;;;;;1.88;1.85;;;;;;;;;;4977127;28;20676;-63
2023/08/30 02:08:53;;;;;;;2.05;2.03;;;;;;;;;;4970276;28;20225;-63
2023/08/30 02:11:22;;;;;;;2.13;2.03;;;;;;;;;;4967652;28;20226;-62
2023/08/30 02:13:50;;;;;;;2.08;1.77;;;;;;;;;;4969737;28;20744;-62
2023/08/30 02:16:18;;;;;;;2.50;2.40;;;;;;;;;;4972869;28;20677;-62
2023/08/30 02:18:47;;;;;;;2.63;2.33;;;;;;;;;;4962181;28;20199;-62
2023/08/30 02:21:14;;;;;;;2.03;1.92;;;;;;;;;;4969511;28;20246;-62
2023/08/30 02:23:41;;;;;;;1.70;1.60;;;;;;;;;;4970479;28;20210;-64
2023/08/30 02:26:08;;;;;;;4.03;2.53;;;;;;;;;;4970612;28;20214;-63
2023/08/30 02:28:37;;;;;;;4.18;1.85;;;;;;;;;;4971000;28;20203;-63
2023/08/30 02:31:04;;;;;;;2.40;2.30;;;;;;;;;;4970130;28;20206;-63
2023/08/30 02:33:31;;;;;;;2.38;2.28;;;;;;;;;;4970426;28;20217;-63
2023/08/30 02:36:00;;;;;;;2.72;2.63;;;;;;;;;;4970595;28;20945;-62
2023/08/30 02:38:27;;;;;;;2.47;2.28;;;;;;;;;;4969968;28;20669;-63
2023/08/30 02:40:54;;;;;;;2.35;2.25;;;;;;;;;;4970697;28;20210;-63
2023/08/30 02:43:21;;;;;;;3.10;2.28;;;;;;;;;;4970196;28;20229;-62
2023/08/30 02:45:48;;;;;;;2.25;2.15;;;;;;;;;;4974418;28;20938;-63
2023/08/30 02:48:15;;;;;;;1.98;1.88;;;;;;;;;;4975066;28;20206;-62
2023/08/30 02:50:42;;;;;;;2.72;2.55;;;;;;;;;;4970146;28;20273;-63
2023/08/30 02:53:11;;;;;;;2.22;1.95;;;;;;;;;;4969915;28;20214;-62
2023/08/30 02:55:38;;;;;;;2.90;2.70;;;;;;;;;;4975331;28;20214;-62
2023/08/30 02:58:05;;;;;;;3.00;2.80;;;;;;;;;;4962849;28;20213;-62
2023/08/30 03:00:34;;;;;;;2.95;2.58;;;;;;;;;;4970151;28;20221;-62
2023/08/30 03:03:02;;;;;;;2.17;2.17;;;;;;;;;;4970019;28;20205;-62
2023/08/30 03:05:29;;;;;;;2.83;1.90;;;;;;;;;;4972606;28;20445;-63
2023/08/30 03:07:56;;;;;;;1.80;1.80;;;;;;;;;;4969798;28;20207;-62
2023/08/30 03:10:25;;;;;;;2.22;2.10;;;;;;;;;;4969310;28;20722;-63
2023/08/30 03:12:52;;;;;;;2.60;1.90;;;;;;;;;;4969727;28;20230;-63
2023/08/30 03:15:19;;;;;;;2.33;1.88;;;;;;;;;;4968731;28;20218;-62
2023/08/30 03:17:46;;;;;;;1.88;1.77;;;;;;;;;;4969251;28;20210;-62
2023/08/30 03:20:13;;;;;;;3.22;2.20;;;;;;;;;;4969000;28;20206;-61
2023/08/30 03:22:40;;;;;;;2.22;2.13;;;;;;;;;;4968775;28;20241;-62
2023/08/30 03:25:09;;;;;;;2.80;2.30;;;;;;;;;;4968814;28;20222;-62
2023/08/30 03:27:37;;;;;;;1.85;1.80;;;;;;;;;;4969477;28;20217;-61
2023/08/30 03:30:06;;;;;;;2.00;1.88;;;;;;;;;;4968654;28;20241;-61
2023/08/30 03:32:33;;;;;;;2.10;1.92;;;;;;;;;;4969886;28;20325;-61
2023/08/30 03:35:00;;;;;;;2.10;1.98;;;;;;;;;;4969078;28;20297;-61
2023/08/30 03:37:27;;;;;;;2.33;2.22;;;;;;;;;;4968606;28;20213;-62
2023/08/30 03:39:54;;;;;;;2.05;1.95;;;;;;;;;;4966103;28;20207;-62
2023/08/30 03:42:21;;;;;;;2.60;2.17;;;;;;;;;;4966326;28;20608;-61
2023/08/30 03:44:50;;;;;;;2.40;2.30;;;;;;;;;;4968283;28;20222;-61
2023/08/30 03:47:17;;;;;;;3.13;2.58;;;;;;;;;;4967832;28;20681;-62
2023/08/30 03:49:45;;;;;;;3.90;2.17;;;;;;;;;;4963164;28;20242;-62
2023/08/30 03:52:12;;;;;;;2.20;2.10;;;;;;;;;;4971902;28;20546;-61
2023/08/30 03:54:39;;;;;;;2.45;1.73;;;;;;;;;;4968354;28;20241;-62
2023/08/30 03:57:06;;;;;;;3.90;2.50;;;;;;;;;;4964002;28;20210;-61
2023/08/30 03:59:34;;;;;;;2.85;2.65;;;;;;;;;;4963330;28;20214;-61
2023/08/30 04:02:02;;;;;;;3.00;2.80;;;;;;;;;;4957372;28;20677;-61
2023/08/30 04:04:29;;;;;;;3.55;2.15;;;;;;;;;;4964361;28;20207;-62
2023/08/30 04:06:56;;;;;;;2.72;2.58;;;;;;;;;;4968029;28;20206;-62
2023/08/30 04:09:23;;;;;;;3.17;2.97;;;;;;;;;;4967989;28;20229;-62
2023/08/30 04:11:51;;;;;;;2.42;2.33;;;;;;;;;;4967518;28;20708;-65
2023/08/30 04:14:18;;;;;;;2.58;2.47;;;;;;;;;;4975847;28;20291;-62
2023/08/30 04:16:45;;;;;;;3.70;2.38;;;;;;;;;;4969799;28;20572;-64
2023/08/30 04:19:13;;;;;;;3.33;2.70;;;;;;;;;;4972545;28;20244;-62
2023/08/30 04:21:40;;;;;;;2.97;2.78;;;;;;;;;;4968733;28;20257;-62
2023/08/30 04:24:08;;;;;;;2.47;2.40;;;;;;;;;;4968278;28;20206;-62
2023/08/30 04:26:35;;;;;;;3.47;3.38;;;;;;;;;;4967216;28;20236;-61
2023/08/30 04:29:03;;;;;;;3.20;3.00;;;;;;;;;;4968503;28;20199;-61
2023/08/30 04:31:30;;;;;;;4.38;4.07;;;;;;;;;;4968640;28;20588;-62
2023/08/30 04:33:57;;;;;;;3.80;3.50;;;;;;;;;;4968793;28;20210;-62
2023/08/30 04:36:25;;;;;;;9.57;3.70;;;;;;;;;;4949774;29;20230;-62
2023/08/30 04:38:53;;;;;;;3.60;3.40;;;;;;;;;;4968472;28;20222;-61
2023/08/30 04:41:20;;;;;;;3.30;3.10;;;;;;;;;;4969160;28;20207;-64
2023/08/30 04:43:47;;;;;;;4.05;3.65;;;;;;;;;;4968412;28;20660;-61
2023/08/30 04:46:14;;;;;;;4.45;4.15;;;;;;;;;;4964240;28;20206;-61
2023/08/30 04:48:41;;;;;;;4.97;3.30;;;;;;;;;;4956851;28;20206;-62
2023/08/30 04:51:08;;;;;;;4.20;3.88;;;;;;;;;;4970269;28;20234;-61
2023/08/30 04:53:36;;;;;;;3.00;2.90;;;;;;;;;;4970437;28;20214;-61
2023/08/30 04:56:11;;;;;;;4.03;3.58;;;;;;;;;;4968627;28;20234;-62
2023/08/30 04:58:39;;;;;;;4.03;3.83;;;;;;;;;;4968713;28;20209;-63
2023/08/30 05:01:06;;;;;;;3.85;3.65;;;;;;;;;;4968773;28;20597;-64
2023/08/30 05:03:33;;;;;;;5.93;3.92;;;;;;;;;;4969101;28;20237;-62
2023/08/30 05:06:00;;;;;;;4.07;3.88;;;;;;;;;;4968450;28;20295;-62
2023/08/30 05:08:27;;;;;;;3.97;3.72;;;;;;;;;;4970763;28;20214;-62
2023/08/30 05:10:56;;;;;;;4.25;3.95;;;;;;;;;;4971892;28;20237;-62
2023/08/30 05:13:23;;;;;;;3.55;3.30;;;;;;;;;;4972028;28;20222;-62
2023/08/30 05:15:50;;;;;;;3.90;3.70;;;;;;;;;;4971919;28;20209;-64
2023/08/30 05:18:17;;;;;;;4.38;4.07;;;;;;;;;;4972040;28;20206;-62
2023/08/30 05:20:44;;;;;;;6.10;4.35;;;;;;;;;;4960029;28;20230;-64
2023/08/30 05:23:11;;;;;;;3.92;3.67;;;;;;;;;;4971841;28;20234;-62
2023/08/30 05:25:38;;;;;;;4.05;3.75;;;;;;;;;;4971466;28;20229;-60
2023/08/30 05:28:07;;;;;;;4.97;3.85;;;;;;;;;;4972048;28;20206;-61
2023/08/30 05:30:34;;;;;;;4.35;4.05;;;;;;;;;;4972692;28;20539;-59
2023/08/30 05:33:01;;;;;;;4.50;4.15;;;;;;;;;;4967997;28;20578;-59
2023/08/30 05:35:28;;;;;;;4.32;4.03;;;;;;;;;;4972643;28;20237;-60
2023/08/30 05:37:55;;;;;;;4.13;3.83;;;;;;;;;;4967873;28;20218;-59
2023/08/30 05:40:23;;;;;;;4.10;3.90;;;;;;;;;;4970353;28;20205;-60
2023/08/30 05:42:50;;;;;;;4.40;4.00;;;;;;;;;;4969691;28;20210;-59
2023/08/30 05:45:18;;;;;;;3.97;3.78;;;;;;;;;;4972530;28;20206;-60
2023/08/30 05:47:45;;;;;;;4.55;4.25;;;;;;;;;;4971649;28;20206;-60
2023/08/30 05:50:12;;;;;;;4.82;4.53;;;;;;;;;;4971995;28;20229;-60
2023/08/30 05:52:41;;;;;;;4.85;4.47;;;;;;;;;;4971767;28;20211;-60
2023/08/30 05:55:08;;;;;;;4.95;4.57;;;;;;;;;;4982770;28;20534;-60
2023/08/30 05:57:35;;;;;;;4.22;3.85;;;;;;;;;;4986056;28;20213;-60
2023/08/30 06:00:04;;;;;;;5.03;4.63;;;;;;;;;;4967149;28;20225;-59
2023/08/30 06:02:33;;;;;;;5.32;4.78;;;;;;;;;;4971091;28;20234;-61
2023/08/30 06:05:00;;;;;;;5.95;5.25;;;;;;;;;;4971500;28;20210;-61
2023/08/30 06:07:27;;;;;;;5.07;4.78;;;;;;;;;;4971472;28;20431;-61
2023/08/30 06:09:54;;;;;;;5.68;5.18;;;;;;;;;;4970261;28;20214;-61
2023/08/30 06:12:21;;;;;;;5.80;5.22;;;;;;;;;;4971736;28;20230;-60
2023/08/30 06:14:51;;;;;;;5.60;5.20;;;;;;;;;;4971778;28;20214;-61
2023/08/30 06:17:19;;;;;;;6.05;5.47;;;;;;;;;;4971540;28;20674;-60
2023/08/30 06:19:47;;;;;;;5.80;5.40;;;;;;;;;;4969820;28;20210;-60
2023/08/30 06:22:15;;;;;;;6.18;5.57;;;;;;;;;;4970762;28;20258;-61
2023/08/30 06:24:42;;;;;;;6.03;5.45;;;;;;;;;;4970431;28;20214;-61
2023/08/30 06:27:09;;;;;;;5.97;5.47;;;;;;;;;;4970663;28;20211;-61
2023/08/30 06:29:36;;;;;;;6.03;5.53;;;;;;;;;;4978371;28;20347;-61
2023/08/30 06:32:03;;;;;;;6.47;5.10;;;;;;;;;;4972983;28;20784;-60
2023/08/30 06:34:30;;;;;;;5.68;5.38;;;;;;;;;;4969721;28;20214;-60
2023/08/30 06:36:59;;;;;;;5.35;4.95;;;;;;;;;;4971013;28;20202;-60
2023/08/30 06:39:26;;;;;;;5.60;5.20;;;;;;;;;;4970727;28;20210;-60
2023/08/30 06:41:53;;;;;;;5.60;5.20;;;;;;;;;;4976035;28;20214;-60
2023/08/30 06:44:21;;;;;;;5.90;5.40;;;;;;;;;;4990408;28;20213;-60
2023/08/30 06:46:48;;;;;;;7.07;5.72;;;;;;;;;;4982409;28;20217;-60
2023/08/30 06:49:15;;;;;;;5.97;5.00;;;;;;;;;;4961000;28;20210;-60
2023/08/30 06:51:42;;;;;;;5.57;5.07;;;;;;;;;;4968188;28;20696;-60
2023/08/30 06:54:11;;;;;;;9.15;5.90;;;;;;;;;;4969014;28;20601;-59
2023/08/30 06:56:38;;;;;;;4.68;4.22;;;;;;;;;;4972020;28;20207;-61
2023/08/30 06:59:05;;;;;;;5.20;4.88;;;;;;;;;;4969874;28;20217;-61
2023/08/30 07:01:32;;;;;;;5.38;5.07;;;;;;;;;;4970499;28;20225;-60
2023/08/30 07:03:59;;;;;;;4.35;4.15;;;;;;;;;;4970458;28;20221;-60
2023/08/30 07:06:29;;;;;;;8.23;5.10;;;;;;;;;;4970493;28;20392;-60
2023/08/30 07:08:56;;;;;;;5.30;5.00;;;;;;;;;;4979640;28;20206;-60
2023/08/30 07:11:25;;;;;;;5.20;4.80;;;;;;;;;;4969853;28;20252;-60
2023/08/30 07:13:52;;;;;;;5.72;5.32;;;;;;;;;;4970117;28;20211;-60
2023/08/30 07:16:19;;;;;;;5.90;5.43;;;;;;;;;;4969922;28;20735;-60
2023/08/30 07:18:46;;;;;;;5.70;5.32;;;;;;;;;;4969644;28;20210;-60
2023/08/30 07:21:13;;;;;;;5.93;5.47;;;;;;;;;;4969790;28;20410;-60
2023/08/30 07:23:40;;;;;;;5.68;5.38;;;;;;;;;;4969925;28;20233;-60
2023/08/30 07:26:07;;;;;;;5.75;5.35;;;;;;;;;;4970103;28;20301;-61
2023/08/30 07:28:35;;;;;;;5.85;5.45;;;;;;;;;;4969960;28;20218;-61
2023/08/30 07:31:05;;;;;;;6.10;5.70;;;;;;;;;;4968125;28;20218;-61
2023/08/30 07:33:33;;;;;;;7.07;6.00;;;;;;;;;;4969835;28;20210;-61
2023/08/30 07:36:00;;;;;;;6.45;5.95;;;;;;;;;;4988351;28;20734;-61
2023/08/30 07:38:27;;;;;;;5.60;5.10;;;;;;;;;;4988789;28;20212;-61
2023/08/30 07:40:55;;;;;;;4.90;4.57;;;;;;;;;;4972224;28;20213;-61
2023/08/30 07:43:22;;;;;;;6.10;5.60;;;;;;;;;;4969161;28;20202;-61
2023/08/30 07:45:50;;;;;;;6.70;5.40;;;;;;;;;;4968942;28;20233;-61
2023/08/30 07:48:17;;;;;;;5.78;5.38;;;;;;;;;;4968810;28;20215;-61
2023/08/30 07:50:44;;;;;;;7.10;6.50;;;;;;;;;;4968368;28;20226;-62
2023/08/30 07:53:12;;;;;;;5.60;5.28;;;;;;;;;;4968381;28;20218;-61
2023/08/30 07:55:40;;;;;;;6.70;6.10;;;;;;;;;;4968151;28;20210;-61
2023/08/30 07:58:09;;;;;;;7.88;5.55;;;;;;;;;;4968788;28;20274;-61
2023/08/30 08:00:36;;;;;;;6.95;4.88;;;;;;;;;;4968939;28;20697;-61
2023/08/30 08:03:05;;;;;;;4.90;4.50;;;;;;;;;;4968471;28;20210;-61
2023/08/30 08:05:32;;;;;;;5.00;4.60;;;;;;;;;;4969817;28;20303;-62
2023/08/30 08:08:01;;;;;;;4.72;4.32;;;;;;;;;;4978590;28;20220;-62
2023/08/30 08:10:28;;;;;;;5.03;4.72;;;;;;;;;;4987638;28;20295;-62
2023/08/30 08:12:55;;;;;;;4.80;4.47;;;;;;;;;;4981648;28;20233;-62
2023/08/30 08:15:22;;;;;;;4.78;4.43;;;;;;;;;;4968348;28;20213;-62
2023/08/30 08:17:49;;;;;;;5.00;4.60;;;;;;;;;;4968574;28;20206;-62
2023/08/30 08:20:18;;;;;;;4.95;4.07;;;;;;;;;;4968358;28;20207;-62
2023/08/30 08:22:45;;;;;;;4.65;4.20;;;;;;;;;;4967656;28;20237;-61
2023/08/30 08:25:13;;;;;;;4.60;4.13;;;;;;;;;;4968307;28;20206;-62
2023/08/30 08:27:40;;;;;;;4.35;4.05;;;;;;;;;;4968160;28;20233;-62
2023/08/30 08:30:09;;;;;;;4.97;4.57;;;;;;;;;;4968153;28;20318;-62
2023/08/30 08:32:36;;;;;;;4.75;4.40;;;;;;;;;;4967649;28;20261;-62
2023/08/30 08:35:03;;;;;;;4.45;4.07;;;;;;;;;;4967587;28;20912;-62
2023/08/30 08:37:32;;;;;;;4.78;4.38;;;;;;;;;;4967401;28;20740;-62
2023/08/30 08:39:59;;;;;;;5.53;5.03;;;;;;;;;;4967923;28;20240;-62
2023/08/30 08:42:28;;;;;;;4.70;4.30;;;;;;;;;;4968317;28;20210;-62
2023/08/30 08:44:56;;;;;;;4.93;4.63;;;;;;;;;;4971741;28;20221;-62
2023/08/30 08:47:24;;;;;;;5.28;4.88;;;;;;;;;;4971839;28;20218;-62
2023/08/30 08:49:52;;;;;;;4.45;4.18;;;;;;;;;;4972093;28;20213;-62
2023/08/30 08:52:19;;;;;;;5.07;4.78;;;;;;;;;;4971686;28;20245;-62
2023/08/30 08:54:47;;;;;;;4.63;4.28;;;;;;;;;;4971531;28;20680;-62
2023/08/30 08:57:15;;;;;;;4.85;4.47;;;;;;;;;;4971716;28;20210;-62
2023/08/30 08:59:42;;;;;;;5.35;5.00;;;;;;;;;;4968933;28;20221;-62
2023/08/30 09:02:09;;;;;;;5.20;4.80;;;;;;;;;;4969304;28;20202;-62
2023/08/30 09:04:36;;;;;;;5.53;5.00;;;;;;;;;;4970270;28;20545;-62
2023/08/30 09:07:04;;;;;;;5.70;5.30;;;;;;;;;;4981307;28;20217;-62
2023/08/30 09:09:31;;;;;;;6.15;4.85;;;;;;;;;;4990494;28;20593;-62
2023/08/30 09:11:59;;;;;;;4.97;4.50;;;;;;;;;;4988273;28;20690;-62
2023/08/30 09:14:27;;;;;;;5.28;4.97;;;;;;;;;;4970871;28;20703;-63
2023/08/30 09:16:57;;;;;;;6.28;5.68;;;;;;;;;;4969617;28;20715;-63
2023/08/30 09:19:24;;;;;;;5.53;5.13;;;;;;;;;;4971471;28;20218;-63
2023/08/30 09:21:54;;;;;;;5.28;4.88;;;;;;;;;;4971313;28;20601;-62
2023/08/30 09:24:21;;;;;;;5.65;5.15;;;;;;;;;;4971098;28;20684;-62
2023/08/30 09:26:49;;;;;;;5.53;5.18;;;;;;;;;;4971430;28;20207;-62
2023/08/30 09:29:18;;;;;;;7.07;4.97;;;;;;;;;;4971251;28;20234;-62
2023/08/30 09:31:45;;;;;;;5.38;5.00;;;;;;;;;;4971110;28;20759;-62
2023/08/30 09:34:12;;;;;;;5.45;4.90;;;;;;;;;;4970828;28;20459;-62
2023/08/30 09:36:40;;;;;;;5.93;5.43;;;;;;;;;;4978328;28;20703;-63
2023/08/30 09:39:07;;;;;;;5.47;4.95;;;;;;;;;;4990126;28;20795;-63
2023/08/30 09:41:34;;;;;;;7.45;5.15;;;;;;;;;;4970873;28;20206;-63
2023/08/30 09:44:01;;;;;;;5.28;4.80;;;;;;;;;;4974177;28;20588;-63
2023/08/30 09:46:30;;;;;;;4.57;4.38;;;;;;;;;;4990246;28;20209;-63
2023/08/30 09:48:57;;;;;;;5.03;4.72;;;;;;;;;;4990374;28;20209;-63
2023/08/30 09:51:26;;;;;;;4.78;4.47;;;;;;;;;;4983076;28;20234;-63
2023/08/30 09:53:55;;;;;;;5.45;4.80;;;;;;;;;;4970258;28;20220;-63
2023/08/30 09:56:23;;;;;;;5.03;4.72;;;;;;;;;;4970496;28;20211;-64
2023/08/30 09:58:50;;;;;;;4.68;4.35;;;;;;;;;;4970974;28;20221;-63
2023/08/30 10:01:17;;;;;;;4.60;4.20;;;;;;;;;;4970263;28;20198;-63
2023/08/30 10:03:47;;;;;;;4.90;4.18;;;;;;;;;;4970676;28;20221;-63
2023/08/30 10:06:15;;;;;;;4.13;3.92;;;;;;;;;;4970641;28;20695;-63
2023/08/30 10:08:42;;;;;;;4.13;3.95;;;;;;;;;;4970444;28;20238;-63
2023/08/30 10:11:11;;;;;;;3.85;3.65;;;;;;;;;;4970599;28;20214;-63
2023/08/30 10:13:40;;;;;;;4.30;4.00;;;;;;;;;;4971401;28;20740;-63
2023/08/30 10:16:07;;;;;;;4.03;3.80;;;;;;;;;;4979698;28;20198;-63
2023/08/30 10:18:35;;;;;;;3.85;3.65;;;;;;;;;;4970834;28;20213;-63
2023/08/30 10:21:08;;;;;;;4.15;3.95;;;;;;;;;;4965029;28;20210;-63
2023/08/30 10:23:35;;;;;;;4.30;4.10;;;;;;;;;;4969590;28;20760;-63
2023/08/30 10:26:03;;;;;;;4.22;3.92;;;;;;;;;;4963756;28;20662;-63
2023/08/30 10:28:31;;;;;;;4.47;4.28;;;;;;;;;;4950755;28;20586;-63
2023/08/30 10:30:58;;;;;;;3.97;3.78;;;;;;;;;;4964125;28;20206;-63
2023/08/30 10:33:25;;;;;;;5.00;3.60;;;;;;;;;;4970078;28;20222;-63
2023/08/30 10:35:55;;;;;;;4.30;4.10;;;;;;;;;;4969873;28;20199;-62
2023/08/30 10:38:30;;;;;;;3.35;3.25;;;;;;;;;;4966838;28;20215;-63
2023/08/30 10:40:57;;;;;;;3.08;2.97;;;;;;;;;;4969577;28;20315;-62
2023/08/30 10:43:31;;;;;;;3.47;3.17;;;;;;;;;;4965715;28;20206;-62
2023/08/30 10:46:02;;;;;;;2.70;2.60;;;;;;;;;;4954842;28;20277;-63
2023/08/30 10:48:35;;;;;;;2.90;2.78;;;;;;;;;;4967191;28;20206;-62
2023/08/30 10:51:04;;;;;;;2.70;2.60;;;;;;;;;;4969249;28;20285;-62
2023/08/30 10:53:32;;;;;;;2.63;2.42;;;;;;;;;;4949721;28;20669;-62
2023/08/30 10:56:11;;;;;;;4.25;2.58;;;;;;;;;;4949400;29;20565;-62
2023/08/30 10:58:43;;;;;;;3.08;2.63;;;;;;;;;;4948413;28;20210;-63
2023/08/30 11:01:11;;;;;;;2.53;2.35;;;;;;;;;;4948769;28;20222;-63
2023/08/30 11:03:38;;;;;;;7.93;2.78;;;;;;;;;;4985815;28;20214;-63
2023/08/30 11:06:06;;;;;;;2.45;2.35;;;;;;;;;;4969343;28;20218;-63
2023/08/30 11:08:35;;;;;;;2.40;2.30;;;;;;;;;;4969126;28;20210;-62
2023/08/30 11:11:04;;;;;;;2.33;2.22;;;;;;;;;;4969215;28;20668;-62
2023/08/30 11:13:33;;;;;;;2.70;2.50;;;;;;;;;;4967219;28;20606;-63
2023/08/30 11:16:03;;;;;;;2.78;2.30;;;;;;;;;;4968499;28;20212;-63
2023/08/30 11:18:31;;;;;;;2.58;2.40;;;;;;;;;;4949727;28;20215;-63
2023/08/30 11:21:01;;;;;;;3.08;2.53;;;;;;;;;;4958054;28;20215;-63
2023/08/30 11:23:29;;;;;;;2.30;2.20;;;;;;;;;;4949864;29;20207;-62
2023/08/30 11:25:57;;;;;;;3.47;2.30;;;;;;;;;;4957633;28;20206;-63
2023/08/30 11:28:24;;;;;;;2.10;2.00;;;;;;;;;;4967008;28;20217;-62
2023/08/30 11:30:52;;;;;;;2.50;2.30;;;;;;;;;;4969068;28;20301;-63
2023/08/30 11:33:19;;;;;;;2.28;2.20;;;;;;;;;;4968847;28;20265;-62
2023/08/30 11:35:47;;;;;;;2.47;2.30;;;;;;;;;;4968987;28;20431;-63
2023/08/30 11:38:15;;;;;;;3.28;2.30;;;;;;;;;;4968093;28;20584;-63
2023/08/30 11:40:42;;;;;;;2.25;2.17;;;;;;;;;;4968041;28;20210;-60
2023/08/30 11:43:11;;;;;;;2.13;2.13;;;;;;;;;;4967330;28;20206;-62
2023/08/30 11:45:38;;;;;;;2.40;2.30;;;;;;;;;;4968426;28;20203;-63
2023/08/30 11:48:06;;;;;;;2.22;2.13;;;;;;;;;;4961536;28;20207;-63
2023/08/30 11:50:33;;;;;;;2.33;2.22;;;;;;;;;;4966912;28;20210;-62
2023/08/30 11:53:00;;;;;;;2.03;2.03;;;;;;;;;;4963587;28;20233;-64
2023/08/30 11:55:27;;;;;;;3.35;2.60;;;;;;;;;;4962585;28;20651;-62
2023/08/30 11:57:54;;;;;;;2.10;2.10;;;;;;;;;;4967196;28;20664;-62
2023/08/30 12:00:24;;;;;;;2.67;2.58;;;;;;;;;;4949243;28;20215;-62
2023/08/30 12:02:51;;;;;;;2.90;2.70;;;;;;;;;;4963059;28;20214;-62
2023/08/30 12:05:18;;;;;;;2.28;2.13;;;;;;;;;;4961897;28;20210;-62
2023/08/30 12:07:47;;;;;;;4.80;2.40;;;;;;;;;;4966447;28;20210;-65
2023/08/30 12:10:14;;;;;;;2.85;2.65;;;;;;;;;;4967069;28;20238;-63
2023/08/30 12:12:46;;;;;;;2.10;2.00;;;;;;;;;;4957391;28;20593;-63
2023/08/30 12:15:14;;;;;;;2.55;2.28;;;;;;;;;;4956163;28;20778;-62
2023/08/30 12:17:42;;;;;;;1.90;1.80;;;;;;;;;;4947515;28;20211;-63
2023/08/30 12:20:17;;;;;;;1.85;1.85;;;;;;;;;;4964415;28;20221;-61
2023/08/30 12:22:44;;;;;;;2.40;2.20;;;;;;;;;;4954703;28;20254;-61
2023/08/30 12:25:18;;;;;;;3.17;2.03;;;;;;;;;;4961290;28;20238;-62
2023/08/30 12:27:45;;;;;;;2.85;1.80;;;;;;;;;;4965528;28;20284;-61
2023/08/30 12:30:12;;;;;;;2.10;2.00;;;;;;;;;;4953517;28;20397;-61
2023/08/30 12:32:39;;;;;;;2.08;2.00;;;;;;;;;;4948284;28;20241;-61
2023/08/30 12:35:08;;;;;;;2.10;1.98;;;;;;;;;;4949222;29;20218;-62
2023/08/30 12:37:35;;;;;;;2.60;2.40;;;;;;;;;;4948555;28;20219;-61
2023/08/30 12:40:03;;;;;;;2.35;2.25;;;;;;;;;;4962263;28;20217;-61
2023/08/30 12:42:30;;;;;;;2.63;2.35;;;;;;;;;;4952057;28;20669;-62
2023/08/30 12:44:57;;;;;;;4.35;2.20;;;;;;;;;;4966088;28;20703;-62
2023/08/30 12:47:24;;;;;;;2.38;2.17;;;;;;;;;;4948816;28;20243;-62
2023/08/30 12:49:51;;;;;;;2.35;2.22;;;;;;;;;;4965508;28;20221;-61
2023/08/30 12:52:20;;;;;;;1.90;1.90;;;;;;;;;;4960885;28;20233;-62
2023/08/30 12:54:47;;;;;;;2.25;2.15;;;;;;;;;;4966393;28;20218;-61
2023/08/30 12:57:15;;;;;;;2.30;2.20;;;;;;;;;;4960357;28;20256;-61
2023/08/30 12:59:42;;;;;;;2.30;2.20;;;;;;;;;;4964713;28;20218;-61
2023/08/30 13:02:09;;;;;;;2.83;2.63;;;;;;;;;;4956798;28;20222;-61
2023/08/30 13:04:37;;;;;;;2.40;2.30;;;;;;;;;;4964952;28;20215;-62
2023/08/30 13:07:05;;;;;;;2.67;2.58;;;;;;;;;;4962707;28;20289;-62
2023/08/30 13:09:33;;;;;;;3.22;2.22;;;;;;;;;;4966248;28;20210;-62
2023/08/30 13:12:00;;;;;;;2.22;2.20;;;;;;;;;;4963720;28;20234;-61
2023/08/30 13:14:28;;;;;;;2.50;2.40;;;;;;;;;;4964832;28;20226;-62
2023/08/30 13:16:55;;;;;;;2.55;2.47;;;;;;;;;;4965483;28;20222;-61
2023/08/30 13:19:22;;;;;;;2.60;2.40;;;;;;;;;;4966648;28;20683;-62
2023/08/30 13:21:49;;;;;;;2.80;2.70;;;;;;;;;;4965133;28;20251;-61
2023/08/30 13:24:16;;;;;;;2.70;2.50;;;;;;;;;;4966628;28;20206;-62
2023/08/30 13:26:44;;;;;;;2.53;2.42;;;;;;;;;;4965250;28;20218;-61
2023/08/30 13:29:11;;;;;;;2.80;2.70;;;;;;;;;;4965500;28;20225;-61
2023/08/30 13:31:39;;;;;;;2.53;2.42;;;;;;;;;;4980173;28;20220;-61
2023/08/30 13:34:06;;;;;;;2.60;2.50;;;;;;;;;;4970022;28;20234;-62
2023/08/30 13:36:33;;;;;;;2.55;2.35;;;;;;;;;;4954067;28;20230;-62
2023/08/30 13:39:00;;;;;;;2.78;2.67;;;;;;;;;;4954614;28;20211;-61
2023/08/30 13:41:27;;;;;;;2.70;2.60;;;;;;;;;;4966505;28;20229;-61
2023/08/30 13:43:55;;;;;;;2.92;2.67;;;;;;;;;;4968384;28;20226;-67
2023/08/30 13:46:22;;;;;;;2.38;2.33;;;;;;;;;;4962745;28;20316;-66
2023/08/30 13:48:50;;;;;;;2.60;2.40;;;;;;;;;;4966638;28;20206;-60
2023/08/30 13:51:22;;;;;;;2.58;2.47;;;;;;;;;;4962616;28;20577;-64
2023/08/30 13:53:49;;;;;;;2.60;2.50;;;;;;;;;;4966298;28;20234;-67
2023/08/30 13:56:16;;;;;;;2.63;2.42;;;;;;;;;;4968269;28;20222;-67
2023/08/30 13:58:44;;;;;;;2.53;2.42;;;;;;;;;;4955555;28;20215;-68
2023/08/30 14:01:12;;;;;;;2.65;2.55;;;;;;;;;;4968457;28;20216;-68
2023/08/30 14:03:39;;;;;;;2.45;2.45;;;;;;;;;;4960262;28;20218;-69
2023/08/30 14:06:06;;;;;;;4.18;3.00;;;;;;;;;;4963044;28;20655;-68
2023/08/30 14:08:33;;;;;;;2.53;2.38;;;;;;;;;;4949718;28;20582;-68
2023/08/30 14:11:00;;;;;;;2.50;2.40;;;;;;;;;;4961934;28;20218;-68
2023/08/30 14:13:32;;;;;;;2.85;2.75;;;;;;;;;;4966342;28;20242;-68
2023/08/30 14:15:59;;;;;;;3.63;2.28;;;;;;;;;;4968232;28;20246;-68
2023/08/30 14:18:27;;;;;;;2.35;2.20;;;;;;;;;;4968166;28;20415;-68
2023/08/30 14:20:57;;;;;;;3.05;2.65;;;;;;;;;;4962673;28;20213;-68
2023/08/30 14:23:24;;;;;;;2.42;2.33;;;;;;;;;;4962416;28;20250;-68
2023/08/30 14:25:56;;;;;;;2.47;1.90;;;;;;;;;;4967547;28;20210;-68
2023/08/30 14:28:23;;;;;;;4.88;2.08;;;;;;;;;;4958454;28;20206;-68
2023/08/30 14:30:50;;;;;;;2.95;2.20;;;;;;;;;;4954477;28;20211;-69
2023/08/30 14:33:17;;;;;;;2.35;2.20;;;;;;;;;;4968181;28;20578;-68
2023/08/30 14:35:46;;;;;;;2.30;2.20;;;;;;;;;;4969000;28;20217;-68
2023/08/30 14:38:13;;;;;;;2.53;2.40;;;;;;;;;;4969204;28;20214;-68
2023/08/30 14:40:40;;;;;;;2.20;2.10;;;;;;;;;;4968126;28;20218;-68
2023/08/30 14:43:07;;;;;;;2.58;2.47;;;;;;;;;;4968849;28;20569;-68
2023/08/30 14:45:34;;;;;;;2.40;2.30;;;;;;;;;;4963937;28;20215;-68